createdAt,value
2023-03-25T00:01:41.585Z,3.70
2023-03-25T00:04:08.826Z,3.35
2023-03-25T00:06:35.794Z,2.78
2023-03-25T00:09:04.341Z,2.95
2023-03-25T00:11:31.757Z,4.13
2023-03-25T00:13:58.858Z,3.55
2023-03-25T00:16:25.962Z,5.50
2023-03-25T00:18:53.432Z,4.03
2023-03-25T00:21:21.096Z,4.65
2023-03-25T00:23:48.091Z,3.75
2023-03-25T00:26:15.126Z,5.10
2023-03-25T00:28:42.243Z,3.90
2023-03-25T00:31:12.560Z,2.53
2023-03-25T00:36:10.019Z,2.83
2023-03-25T00:38:38.205Z,3.63
2023-03-25T00:41:26.132Z,3.58
2023-03-25T00:43:55.739Z,2.97
2023-03-25T00:46:24.883Z,4.80
2023-03-25T00:48:52.721Z,4.18
2023-03-25T00:51:21.967Z,5.32
2023-03-25T00:53:54.979Z,4.53
2023-03-25T00:56:25.559Z,4.60
2023-03-25T00:58:52.904Z,3.60
2023-03-25T01:01:28.982Z,3.65
2023-03-25T01:03:59.415Z,5.68
2023-03-25T01:06:29.801Z,5.80
2023-03-25T01:08:58.738Z,3.70
2023-03-25T01:11:28.733Z,4.40
2023-03-25T01:13:57.273Z,4.70
2023-03-25T01:16:24.465Z,5.00
2023-03-25T01:18:51.658Z,4.68
2023-03-25T01:21:19.203Z,4.00
2023-03-25T01:23:46.646Z,5.97
2023-03-25T01:26:13.746Z,5.95
2023-03-25T01:28:42.224Z,3.65
2023-03-25T01:31:12.496Z,4.53
2023-03-25T01:36:13.135Z,3.92
2023-03-25T01:38:42.119Z,4.20
2023-03-25T01:41:10.878Z,4.43
2023-03-25T01:43:37.949Z,4.22
2023-03-25T01:46:05.220Z,4.20
2023-03-25T01:48:38.760Z,4.30
2023-03-25T01:51:19.436Z,4.07
2023-03-25T01:53:47.941Z,4.38
2023-03-25T01:56:19.762Z,5.35
2023-03-25T01:58:48.360Z,4.85
2023-03-25T02:01:17.172Z,4.15
2023-03-25T02:03:51.039Z,4.88
2023-03-25T02:06:32.040Z,3.72
2023-03-25T02:09:02.393Z,3.53
2023-03-25T02:14:03.034Z,3.85
2023-03-25T02:16:49.418Z,4.25
2023-03-25T02:19:35.687Z,3.90
2023-03-25T02:22:18.161Z,4.35
2023-03-25T02:24:54.198Z,5.05
2023-03-25T02:27:42.143Z,5.47
2023-03-25T02:30:32.502Z,4.38
2023-03-25T02:33:31.265Z,3.90
2023-03-25T02:36:07.270Z,4.40
2023-03-25T02:39:01.533Z,5.00
2023-03-25T02:41:33.326Z,4.28
2023-03-25T02:44:09.116Z,4.50
2023-03-25T02:46:40.589Z,4.65
2023-03-25T02:49:25.920Z,3.60
2023-03-25T02:51:58.785Z,4.07
2023-03-25T02:54:29.311Z,3.75
2023-03-25T02:56:59.181Z,5.75
2023-03-25T02:59:30.287Z,4.40
2023-03-25T03:02:00.802Z,3.08
2023-03-25T03:04:28.372Z,2.83
2023-03-25T03:06:58.103Z,3.30
2023-03-25T03:09:45.173Z,4.30
2023-03-25T03:12:19.164Z,4.38
2023-03-25T03:14:51.998Z,5.00
2023-03-25T03:17:51.716Z,5.43
2023-03-25T03:20:34.621Z,3.42
2023-03-25T03:23:37.251Z,5.03
2023-03-25T03:26:13.209Z,3.30
2023-03-25T03:28:50.625Z,4.28
2023-03-25T03:31:48.620Z,3.65
2023-03-25T03:34:36.687Z,3.47
2023-03-25T03:37:06.059Z,3.47
2023-03-25T03:39:38.346Z,3.53
2023-03-25T03:42:19.013Z,3.85
2023-03-25T03:44:51.822Z,2.42
2023-03-25T03:47:24.217Z,4.50
2023-03-25T03:49:55.277Z,3.35
2023-03-25T03:52:38.001Z,2.88
2023-03-25T03:55:14.236Z,3.40
2023-03-25T03:57:47.420Z,2.78
2023-03-25T04:00:24.162Z,4.20
2023-03-25T04:02:54.969Z,4.45
2023-03-25T04:05:23.763Z,2.80
2023-03-25T04:08:03.846Z,3.08
2023-03-25T04:10:39.531Z,3.83
2023-03-25T04:13:11.638Z,3.78
2023-03-25T04:15:38.831Z,3.83
2023-03-25T04:18:06.038Z,4.25
2023-03-25T04:20:36.650Z,3.65
2023-03-25T04:23:05.176Z,4.50
2023-03-25T04:25:37.386Z,3.00
2023-03-25T04:28:21.183Z,4.25
2023-03-25T04:31:02.792Z,2.78
2023-03-25T04:33:33.759Z,3.10
2023-03-25T04:36:15.601Z,2.75
2023-03-25T04:38:45.997Z,3.40
2023-03-25T04:41:14.142Z,4.32
2023-03-25T04:46:17.487Z,4.15
2023-03-25T04:48:45.626Z,3.17
2023-03-25T04:51:13.886Z,3.33
2023-03-25T04:53:49.435Z,4.80
2023-03-25T04:56:22.938Z,4.60
2023-03-25T04:58:50.524Z,4.25
2023-03-25T05:01:35.785Z,3.35
2023-03-25T05:04:19.902Z,2.08
2023-03-25T05:06:50.676Z,4.60
2023-03-25T05:09:22.334Z,2.88
2023-03-25T05:11:54.250Z,3.40
2023-03-25T05:14:23.320Z,3.78
2023-03-25T05:16:51.363Z,4.18
2023-03-25T05:19:25.866Z,4.55
2023-03-25T05:21:57.759Z,4.00
2023-03-25T05:24:28.632Z,4.00
2023-03-25T05:27:02.554Z,3.25
2023-03-25T05:29:34.067Z,3.58
2023-03-25T05:32:01.432Z,4.47
2023-03-25T05:34:31.818Z,4.72
2023-03-25T05:39:30.643Z,3.80
2023-03-25T05:42:05.084Z,3.97
2023-03-25T05:44:35.603Z,3.85
2023-03-25T05:47:09.166Z,4.43
2023-03-25T05:52:05.462Z,4.65
2023-03-25T05:57:14.628Z,4.78
2023-03-25T05:59:45.709Z,4.72
2023-03-25T06:02:20.821Z,5.18
2023-03-25T06:04:51.537Z,5.03
2023-03-25T06:07:22.521Z,5.43
2023-03-25T06:09:56.199Z,3.72
2023-03-25T06:12:29.991Z,4.90
2023-03-25T06:15:14.708Z,3.63
2023-03-25T06:17:56.372Z,4.82
2023-03-25T06:20:38.339Z,4.10
2023-03-25T06:23:18.159Z,5.85
2023-03-25T06:28:19.524Z,4.40
2023-03-25T06:30:50.080Z,4.45
2023-03-25T06:33:43.018Z,5.20
2023-03-25T06:36:30.608Z,4.60
2023-03-25T06:39:03.525Z,5.18
2023-03-25T06:41:41.692Z,4.57
2023-03-25T06:44:24.696Z,5.15
2023-03-25T06:47:22.750Z,4.57
2023-03-25T06:49:56.470Z,5.38
2023-03-25T06:52:36.767Z,3.95
2023-03-25T06:55:22.299Z,5.88
2023-03-25T06:57:56.911Z,5.05
2023-03-25T07:00:27.742Z,5.00
2023-03-25T07:02:55.765Z,3.70
2023-03-25T07:05:22.871Z,5.18
2023-03-25T07:07:50.606Z,6.57
2023-03-25T07:10:20.688Z,6.45
2023-03-25T07:12:47.820Z,5.57
2023-03-25T07:15:17.908Z,4.40
2023-03-25T07:17:49.539Z,7.07
2023-03-25T07:20:17.347Z,5.47
2023-03-25T07:22:44.823Z,6.28
2023-03-25T07:25:11.921Z,5.97
2023-03-25T07:27:41.548Z,4.57
2023-03-25T07:30:13.887Z,7.13
2023-03-25T07:32:41.323Z,5.88
2023-03-25T07:35:10.243Z,6.60
2023-03-25T07:37:37.525Z,8.27
2023-03-25T07:40:11.031Z,8.27
2023-03-25T07:42:41.849Z,7.05
2023-03-25T07:45:24.341Z,6.40
2023-03-25T07:47:58.178Z,6.72
2023-03-25T07:50:27.748Z,8.50
2023-03-25T07:52:54.941Z,6.78
2023-03-25T07:55:45.127Z,7.53
2023-03-25T07:58:28.570Z,8.40
2023-03-25T08:01:25.531Z,7.47
2023-03-25T08:04:02.000Z,10.18
2023-03-25T08:07:13.199Z,7.55
2023-03-25T08:10:56.630Z,6.53
2023-03-25T08:13:25.579Z,8.13
2023-03-25T08:15:57.930Z,9.52
2023-03-25T08:18:25.968Z,7.15
2023-03-25T08:20:55.815Z,5.30
2023-03-25T08:23:23.607Z,9.57
2023-03-25T08:25:51.709Z,6.82
2023-03-25T08:28:27.151Z,10.15
2023-03-25T08:30:59.430Z,9.05
2023-03-25T08:33:41.193Z,9.73
2023-03-25T08:36:14.577Z,7.38
2023-03-25T08:38:45.623Z,9.52
2023-03-25T08:41:17.264Z,11.20
2023-03-25T08:43:55.268Z,6.40
2023-03-25T08:46:27.876Z,9.77
2023-03-25T08:49:04.045Z,13.60
2023-03-25T08:51:43.517Z,13.68
2023-03-25T08:54:30.060Z,13.23
2023-03-25T08:57:02.572Z,13.85
2023-03-25T08:59:36.312Z,11.82
2023-03-25T09:02:03.810Z,9.70
2023-03-25T09:04:41.893Z,11.32
2023-03-25T09:07:12.630Z,10.88
2023-03-25T09:09:43.112Z,10.90
2023-03-25T09:12:10.264Z,11.80
2023-03-25T09:14:37.663Z,14.07
2023-03-25T09:17:06.581Z,14.77
2023-03-25T09:19:38.227Z,11.90
2023-03-25T09:22:06.407Z,12.57
2023-03-25T09:24:34.363Z,12.55
2023-03-25T09:27:03.177Z,17.17
2023-03-25T09:29:30.507Z,11.02
2023-03-25T09:32:01.164Z,13.45
2023-03-25T09:34:28.570Z,9.77
2023-03-25T09:36:56.041Z,13.07
2023-03-25T09:39:23.184Z,16.70
2023-03-25T09:42:05.156Z,13.00
2023-03-25T09:44:46.107Z,12.23
2023-03-25T09:47:15.982Z,11.02
2023-03-25T09:49:47.006Z,16.35
2023-03-25T09:52:21.541Z,18.00
2023-03-25T09:54:59.908Z,14.07
2023-03-25T09:57:33.493Z,16.40
2023-03-25T10:00:04.248Z,15.25
2023-03-25T10:02:54.099Z,15.70
2023-03-25T10:05:37.617Z,19.13
2023-03-25T10:08:17.142Z,14.57
2023-03-25T10:10:51.434Z,18.27
2023-03-25T10:13:20.005Z,12.05
2023-03-25T10:15:53.539Z,9.10
2023-03-25T10:18:42.004Z,12.60
2023-03-25T10:21:23.895Z,11.57
2023-03-25T10:23:53.521Z,11.13
2023-03-25T10:26:30.820Z,15.02
2023-03-25T10:29:06.776Z,12.13
2023-03-25T10:31:40.508Z,11.77
2023-03-25T10:34:15.627Z,11.05
2023-03-25T10:36:52.163Z,10.27
2023-03-25T10:39:21.259Z,13.48
2023-03-25T10:41:55.392Z,10.50
2023-03-25T10:44:25.909Z,11.43
2023-03-25T10:47:12.704Z,14.00
2023-03-25T10:49:42.089Z,10.05
2023-03-25T10:52:10.021Z,10.37
2023-03-25T10:54:41.571Z,10.50
2023-03-25T10:57:11.301Z,11.10
2023-03-25T10:59:49.853Z,10.20
2023-03-25T11:02:22.931Z,12.32
2023-03-25T11:04:56.386Z,10.63
2023-03-25T11:07:30.396Z,9.07
2023-03-25T11:10:13.752Z,13.05
2023-03-25T11:12:47.769Z,10.52
2023-03-25T11:15:17.516Z,12.75
2023-03-25T11:17:47.412Z,12.15
2023-03-25T11:20:21.926Z,10.82
2023-03-25T11:22:53.434Z,13.13
2023-03-25T11:25:33.100Z,13.68
2023-03-25T11:28:05.493Z,12.60
2023-03-25T11:30:32.565Z,14.43
2023-03-25T11:33:13.283Z,13.05
2023-03-25T11:35:46.862Z,10.02
2023-03-25T11:38:23.240Z,11.98
2023-03-25T11:40:55.538Z,15.30
2023-03-25T11:43:36.988Z,12.60
2023-03-25T11:46:16.286Z,13.40
2023-03-25T11:48:48.047Z,11.18
2023-03-25T11:51:35.185Z,10.93
2023-03-25T11:54:13.996Z,13.85
2023-03-25T11:56:49.552Z,11.32
2023-03-25T11:59:27.531Z,15.63
2023-03-25T12:02:20.006Z,16.20
2023-03-25T12:05:04.282Z,13.15
2023-03-25T12:07:46.217Z,16.05
2023-03-25T12:11:00.777Z,14.57
2023-03-25T12:13:36.748Z,14.63
2023-03-25T12:16:31.807Z,15.18
2023-03-25T12:19:11.067Z,14.05
2023-03-25T12:21:44.020Z,12.00
2023-03-25T12:24:28.616Z,15.32
2023-03-25T12:27:11.366Z,13.23
2023-03-25T12:29:48.785Z,13.05
2023-03-25T12:32:35.255Z,15.82
2023-03-25T12:35:08.744Z,11.13
2023-03-25T12:37:57.102Z,10.25
2023-03-25T12:41:16.703Z,11.52
2023-03-25T12:44:09.956Z,9.73
2023-03-25T12:46:55.168Z,9.90
2023-03-25T12:49:50.909Z,10.60
2023-03-25T12:52:36.588Z,8.63
2023-03-25T12:55:22.117Z,12.30
2023-03-25T12:57:59.473Z,13.45
2023-03-25T13:00:37.716Z,10.95
2023-03-25T13:03:29.543Z,12.30
2023-03-25T13:06:18.641Z,10.77
2023-03-25T13:08:59.225Z,14.10
2023-03-25T13:11:45.803Z,10.95
2023-03-25T13:14:21.976Z,13.82
2023-03-25T13:16:53.048Z,9.30
2023-03-25T13:19:24.447Z,12.18
2023-03-25T13:21:56.475Z,14.45
2023-03-25T13:24:33.238Z,17.98
2023-03-25T13:27:02.141Z,10.25
2023-03-25T13:29:43.760Z,11.52
2023-03-25T13:32:35.132Z,16.60
2023-03-25T13:35:33.643Z,13.95
2023-03-25T13:38:04.870Z,10.15
2023-03-25T13:40:41.785Z,15.85
2023-03-25T13:43:26.668Z,16.10
2023-03-25T13:46:14.154Z,10.30
2023-03-25T13:48:58.845Z,13.15
2023-03-25T13:51:25.882Z,10.10
2023-03-25T13:54:05.514Z,11.85
2023-03-25T13:56:49.142Z,11.23
2023-03-25T13:59:56.459Z,11.70
2023-03-25T14:03:08.052Z,9.88
2023-03-25T14:06:06.761Z,10.50
2023-03-25T14:08:59.142Z,13.70
2023-03-25T14:11:52.087Z,11.50
2023-03-25T14:14:29.394Z,14.13
2023-03-25T14:17:06.062Z,10.10
2023-03-25T14:19:45.253Z,14.57
2023-03-25T14:22:25.464Z,16.55
2023-03-25T14:24:59.040Z,15.23
2023-03-25T14:27:55.974Z,17.60
2023-03-25T14:30:32.770Z,17.20
2023-03-25T14:33:03.253Z,13.98
2023-03-25T14:35:56.713Z,19.65
2023-03-25T14:38:51.053Z,13.07
2023-03-25T14:42:00.435Z,15.70
2023-03-25T14:44:42.319Z,12.80
2023-03-25T14:47:20.525Z,15.02
2023-03-25T14:50:05.109Z,14.38
2023-03-25T14:52:52.895Z,10.30
2023-03-25T14:55:36.476Z,11.30
2023-03-25T14:58:36.029Z,8.55
2023-03-25T15:01:16.287Z,10.02
2023-03-25T15:04:07.726Z,14.13
2023-03-25T15:06:49.471Z,10.45
2023-03-25T15:09:24.392Z,12.10
2023-03-25T15:12:16.861Z,10.00
2023-03-25T15:19:21.724Z,17.52
2023-03-25T15:22:42.860Z,14.68
2023-03-25T15:25:40.178Z,16.33
2023-03-25T15:28:31.197Z,11.30
2023-03-25T15:31:14.219Z,12.73
2023-03-25T15:33:59.646Z,16.58
2023-03-25T15:37:10.608Z,15.73
2023-03-25T15:40:37.386Z,12.43
2023-03-25T15:44:00.217Z,16.52
2023-03-25T15:46:55.006Z,15.50
2023-03-25T15:49:49.694Z,12.48
2023-03-25T15:52:53.018Z,14.85
2023-03-25T15:55:44.915Z,11.05
2023-03-25T15:58:28.998Z,11.70
2023-03-25T16:01:37.347Z,13.32
2023-03-25T16:04:28.979Z,13.57
2023-03-25T16:06:59.621Z,15.48
2023-03-25T16:09:30.000Z,15.00
2023-03-25T16:14:38.874Z,13.73
2023-03-25T16:17:08.054Z,14.07
2023-03-25T16:19:42.946Z,11.38
2023-03-25T16:22:30.116Z,11.63
2023-03-25T16:25:00.099Z,12.63
2023-03-25T16:27:33.952Z,9.77
2023-03-25T16:30:01.062Z,17.85
2023-03-25T16:32:34.826Z,14.10
2023-03-25T16:35:02.796Z,14.77
2023-03-25T16:37:34.133Z,15.80
2023-03-25T16:40:06.928Z,8.80
2023-03-25T16:42:35.589Z,9.57
2023-03-25T16:45:07.484Z,16.48
2023-03-25T16:47:34.914Z,16.25
2023-03-25T16:50:02.890Z,12.52
2023-03-25T16:52:34.193Z,16.50
2023-03-25T16:55:01.232Z,26.00
2023-03-25T16:57:33.136Z,10.77
2023-03-25T17:00:17.587Z,10.48
2023-03-25T17:02:48.630Z,13.20
2023-03-25T17:05:26.298Z,14.43
2023-03-25T17:08:07.303Z,13.18
2023-03-25T17:10:49.702Z,14.18
2023-03-25T17:13:28.578Z,12.02
2023-03-25T17:15:55.792Z,10.35
2023-03-25T17:18:29.076Z,11.32
2023-03-25T17:21:00.254Z,15.13
2023-03-25T17:23:36.249Z,12.82
2023-03-25T17:26:08.925Z,15.68
2023-03-25T17:29:02.041Z,9.43
2023-03-25T17:31:38.366Z,10.98
2023-03-25T17:34:08.224Z,11.18
2023-03-25T17:36:38.011Z,17.00
2023-03-25T17:43:32.292Z,12.77
2023-03-25T17:49:46.915Z,8.35
2023-03-25T17:52:39.472Z,17.27
2023-03-25T17:55:07.350Z,13.20
2023-03-25T17:57:36.388Z,12.75
2023-03-25T18:00:12.422Z,10.77
2023-03-25T18:02:41.109Z,15.30
2023-03-25T18:05:08.947Z,16.05
2023-03-25T18:07:36.439Z,12.80
2023-03-25T18:10:12.956Z,13.80
2023-03-25T18:12:39.928Z,14.23
2023-03-25T18:15:07.621Z,21.70
2023-03-25T18:17:34.661Z,10.70
2023-03-25T18:20:01.950Z,12.60
2023-03-25T18:22:30.448Z,14.55
2023-03-25T18:24:58.103Z,16.48
2023-03-25T18:27:33.272Z,12.57
2023-03-25T18:30:19.341Z,13.50
2023-03-25T18:32:46.456Z,8.80
2023-03-25T18:35:13.498Z,8.68
2023-03-25T18:37:41.786Z,11.10
2023-03-25T18:40:35.736Z,13.38
2023-03-25T18:43:04.479Z,8.32
2023-03-25T18:45:32.087Z,13.20
2023-03-25T18:47:59.303Z,14.93
2023-03-25T18:50:37.839Z,14.85
2023-03-25T18:53:06.479Z,15.70
2023-03-25T18:55:35.973Z,11.75
2023-03-25T18:58:04.596Z,12.53
2023-03-25T19:00:39.740Z,9.10
2023-03-25T19:03:06.944Z,12.35
2023-03-25T19:05:34.129Z,13.38
2023-03-25T19:08:01.382Z,12.93
2023-03-25T19:10:31.626Z,10.35
2023-03-25T19:13:00.010Z,9.30
2023-03-25T19:15:29.437Z,11.18
2023-03-25T19:18:03.841Z,10.00
2023-03-25T19:20:35.543Z,8.55
2023-03-25T19:23:04.507Z,8.77
2023-03-25T19:25:31.653Z,12.60
2023-03-25T19:27:58.726Z,12.80
2023-03-25T19:30:25.807Z,11.82
2023-03-25T19:33:01.920Z,11.55
2023-03-25T19:35:29.286Z,11.07
2023-03-25T19:37:57.167Z,12.38
2023-03-25T19:40:26.843Z,16.00
2023-03-25T19:42:56.655Z,13.38
2023-03-25T19:45:24.826Z,17.52
2023-03-25T19:47:52.732Z,17.30
2023-03-25T19:50:22.650Z,22.00
2023-03-25T19:52:52.196Z,22.40
2023-03-25T19:55:21.330Z,22.98
2023-03-25T19:57:49.402Z,31.35
2023-03-25T20:00:21.903Z,28.42
2023-03-25T20:02:53.532Z,33.15
2023-03-25T20:05:22.345Z,32.45
2023-03-25T20:07:51.268Z,36.15
2023-03-25T20:10:24.110Z,24.77
2023-03-25T20:12:51.312Z,38.35
2023-03-25T20:15:19.867Z,32.30
2023-03-25T20:17:53.850Z,41.90
2023-03-25T20:20:22.170Z,34.15
2023-03-25T20:22:49.165Z,41.92
2023-03-25T20:25:16.838Z,41.70
2023-03-25T20:27:44.220Z,43.55
2023-03-25T20:30:14.667Z,41.17
2023-03-25T20:35:16.597Z,42.35
2023-03-25T20:37:45.101Z,39.55
2023-03-25T20:40:15.605Z,42.67
2023-03-25T20:42:44.868Z,36.42
2023-03-25T20:45:14.071Z,42.42
2023-03-25T20:47:41.955Z,41.40
2023-03-25T20:50:11.474Z,39.60
2023-03-25T20:52:41.659Z,34.70
2023-03-25T20:55:10.150Z,43.30
2023-03-25T20:57:38.409Z,50.65
2023-03-25T21:00:06.592Z,44.80
2023-03-25T21:02:34.033Z,44.88
2023-03-25T21:05:03.301Z,41.35
2023-03-25T21:07:32.092Z,39.47
2023-03-25T21:09:59.699Z,39.03
2023-03-25T21:12:40.678Z,43.42
2023-03-25T21:15:10.787Z,41.92
2023-03-25T21:17:38.057Z,45.58
2023-03-25T21:20:08.453Z,43.17
2023-03-25T21:22:42.944Z,39.53
2023-03-25T21:25:11.255Z,38.35
2023-03-25T21:27:40.191Z,38.30
2023-03-25T21:30:12.072Z,38.50
2023-03-25T21:32:39.469Z,38.28
2023-03-25T21:35:08.132Z,37.28
2023-03-25T21:37:38.702Z,36.22
2023-03-25T21:40:08.478Z,36.42
2023-03-25T21:42:38.533Z,35.92
2023-03-25T21:45:08.207Z,35.30
2023-03-25T21:47:36.715Z,33.03
2023-03-25T21:50:06.167Z,33.13
2023-03-25T21:52:34.051Z,34.15
2023-03-25T21:55:01.634Z,42.78
2023-03-25T21:57:30.741Z,33.30
2023-03-25T21:59:57.672Z,34.00
2023-03-25T22:02:25.769Z,33.47
2023-03-25T22:04:52.816Z,34.38
2023-03-25T22:07:19.797Z,38.72
2023-03-25T22:09:48.331Z,38.08
2023-03-25T22:12:15.224Z,33.17
2023-03-25T22:14:42.148Z,33.63
2023-03-25T22:17:09.151Z,31.02
2023-03-25T22:19:36.136Z,28.25
2023-03-25T22:22:03.730Z,30.65
2023-03-25T22:24:31.355Z,28.73
2023-03-25T22:26:58.375Z,28.98
2023-03-25T22:29:25.728Z,32.75
2023-03-25T22:31:55.782Z,40.00
2023-03-25T22:34:22.876Z,46.15
2023-03-25T22:36:50.837Z,51.15
2023-03-25T22:39:19.663Z,55.70
2023-03-25T22:41:46.935Z,58.80
2023-03-25T22:44:17.094Z,57.35
2023-03-25T22:49:13.261Z,53.35
2023-03-25T22:51:40.499Z,60.33
2023-03-25T22:54:09.951Z,52.70
2023-03-25T22:56:37.707Z,53.23
2023-03-25T22:59:07.466Z,47.70
2023-03-25T23:01:36.196Z,41.05
2023-03-25T23:04:03.822Z,44.90
2023-03-25T23:06:33.115Z,51.28
2023-03-25T23:09:00.109Z,52.40
2023-03-25T23:11:29.274Z,52.13
2023-03-25T23:13:59.672Z,50.53
2023-03-25T23:18:55.135Z,34.58
2023-03-25T23:21:25.658Z,19.88
2023-03-25T23:26:25.013Z,20.45
2023-03-25T23:28:53.723Z,19.90
2023-03-25T23:31:28.474Z,20.85
2023-03-25T23:34:00.581Z,18.55
2023-03-25T23:36:28.572Z,21.17
2023-03-25T23:38:55.806Z,21.45
2023-03-25T23:41:23.369Z,23.08
2023-03-25T23:43:51.462Z,21.50
2023-03-25T23:46:21.389Z,23.42
2023-03-25T23:48:48.996Z,20.40
2023-03-25T23:51:20.332Z,28.65
2023-03-25T23:53:49.312Z,25.55
2023-03-25T23:56:18.068Z,23.45
2023-03-25T23:58:45.600Z,26.83
